createdAt,value
2018-04-05T00:00:18.647Z,997.89
2018-04-05T00:01:18.575Z,997.92
2018-04-05T00:02:18.497Z,997.92
2018-04-05T00:03:18.519Z,997.92
2018-04-05T00:04:18.326Z,997.94
2018-04-05T00:05:18.261Z,997.91
2018-04-05T00:06:18.163Z,997.96
2018-04-05T00:07:18.099Z,997.95
2018-04-05T00:08:18.008Z,997.94
2018-04-05T00:09:17.971Z,997.91
2018-04-05T00:10:17.848Z,997.98
2018-04-05T00:11:17.784Z,998.06
2018-04-05T00:12:17.700Z,998.10
2018-04-05T00:13:17.642Z,998.06
2018-04-05T00:14:17.556Z,998.09
2018-04-05T00:15:17.462Z,998.02
2018-04-05T00:16:17.369Z,998.10
2018-04-05T00:17:17.307Z,998.08
2018-04-05T00:18:17.221Z,998.05
2018-04-05T00:19:17.159Z,998.08
2018-04-05T00:20:17.053Z,998.07
2018-04-05T00:21:17.003Z,998.10
2018-04-05T00:22:16.901Z,998.11
2018-04-05T00:23:16.829Z,998.11
2018-04-05T00:24:16.758Z,998.17
2018-04-05T00:25:16.687Z,998.15
2018-04-05T00:26:16.589Z,998.14
2018-04-05T00:27:16.501Z,998.19
2018-04-05T00:28:16.417Z,998.16
2018-04-05T00:29:16.437Z,998.18
2018-04-05T00:30:16.261Z,998.14
2018-04-05T00:31:16.195Z,998.19
2018-04-05T00:32:16.102Z,998.15
2018-04-05T00:33:16.033Z,998.19
2018-04-05T00:34:15.940Z,998.19
2018-04-05T00:35:15.885Z,998.24
2018-04-05T00:36:15.784Z,998.18
2018-04-05T00:37:15.706Z,998.21
2018-04-05T00:38:15.628Z,998.24
2018-04-05T00:39:15.631Z,998.22
2018-04-05T00:40:15.478Z,998.27
2018-04-05T00:41:15.388Z,998.26
2018-04-05T00:42:15.306Z,998.26
2018-04-05T00:43:15.237Z,998.29
2018-04-05T00:44:15.141Z,998.27
2018-04-05T00:45:15.100Z,998.24
2018-04-05T00:46:14.979Z,998.27
2018-04-05T00:47:14.914Z,998.24
2018-04-05T00:48:14.827Z,998.27
2018-04-05T00:49:14.835Z,998.28
2018-04-05T00:50:14.686Z,998.21
2018-04-05T00:51:14.599Z,998.22
2018-04-05T00:52:14.513Z,998.25
2018-04-05T00:53:14.448Z,998.22
2018-04-05T00:54:14.351Z,998.25
2018-04-05T00:55:14.313Z,998.29
2018-04-05T00:56:14.197Z,998.24
2018-04-05T00:57:14.121Z,998.30
2018-04-05T00:58:14.028Z,998.34
2018-04-05T00:59:13.956Z,998.26
2018-04-05T01:00:13.892Z,998.33
2018-04-05T01:01:13.797Z,998.38
2018-04-05T01:02:14.439Z,998.31
2018-04-05T01:03:13.635Z,998.37
2018-04-05T01:04:13.546Z,998.32
2018-04-05T01:05:13.486Z,998.36
2018-04-05T01:06:13.413Z,998.32
2018-04-05T01:07:13.327Z,998.34
2018-04-05T01:08:13.234Z,998.32
2018-04-05T01:09:13.164Z,998.31
2018-04-05T01:10:13.070Z,998.28
2018-04-05T01:11:13.025Z,998.31
2018-04-05T01:12:12.915Z,998.31
2018-04-05T01:13:12.835Z,998.31
2018-04-05T01:14:12.752Z,998.31
2018-04-05T01:15:12.687Z,998.26
2018-04-05T01:16:12.613Z,998.31
2018-04-05T01:17:12.525Z,998.33
2018-04-05T01:18:12.440Z,998.35
2018-04-05T01:19:12.376Z,998.30
2018-04-05T01:20:12.274Z,998.32
2018-04-05T01:21:12.218Z,998.42
2018-04-05T01:22:12.112Z,998.34
2018-04-05T01:23:12.050Z,998.39
2018-04-05T01:24:11.954Z,998.40
2018-04-05T01:25:11.886Z,998.36
2018-04-05T01:26:11.830Z,998.40
2018-04-05T01:27:11.734Z,998.42
2018-04-05T01:28:11.635Z,998.41
2018-04-05T01:30:53.889Z,998.40
2018-04-05T01:31:53.824Z,998.41
2018-04-05T01:32:53.704Z,998.42
2018-04-05T01:33:53.636Z,998.43
2018-04-05T01:34:53.557Z,998.40
2018-04-05T01:35:53.472Z,998.44
2018-04-05T01:36:53.435Z,998.45
2018-04-05T01:37:53.950Z,998.41
2018-04-05T01:38:53.225Z,998.46
2018-04-05T01:39:53.153Z,998.39
2018-04-05T01:40:53.073Z,998.43
2018-04-05T01:41:53.035Z,998.39
2018-04-05T01:42:52.911Z,998.40
2018-04-05T01:43:52.844Z,998.44
2018-04-05T01:44:52.747Z,998.46
2018-04-05T01:45:52.677Z,998.50
2018-04-05T01:46:52.590Z,998.52
2018-04-05T01:47:52.587Z,998.51
2018-04-05T01:48:52.432Z,998.47
2018-04-05T01:49:52.362Z,998.49
2018-04-05T01:50:52.289Z,998.42
2018-04-05T01:51:52.199Z,998.53
2018-04-05T01:52:52.127Z,998.56
2018-04-05T01:53:52.063Z,998.58
2018-04-05T01:54:52.056Z,998.61
2018-04-05T01:55:51.886Z,998.50
2018-04-05T01:56:51.795Z,998.66
2018-04-05T01:57:51.752Z,998.62
2018-04-05T01:58:51.639Z,998.59
2018-04-05T01:59:51.567Z,998.64
2018-04-05T02:00:51.475Z,998.62
2018-04-05T02:01:51.421Z,998.63
2018-04-05T02:02:51.330Z,998.72
2018-04-05T02:03:51.240Z,998.69
2018-04-05T02:04:51.160Z,998.66
2018-04-05T02:05:51.085Z,998.73
2018-04-05T02:06:51.000Z,998.68
2018-04-05T02:07:50.965Z,998.65
2018-04-05T02:08:50.837Z,998.64
2018-04-05T02:09:50.766Z,998.76
2018-04-05T02:10:50.690Z,998.68
2018-04-05T02:11:50.603Z,998.65
2018-04-05T02:12:50.525Z,998.68
2018-04-05T02:13:50.557Z,998.76
2018-04-05T02:14:50.356Z,998.71
2018-04-05T02:15:50.291Z,998.75
2018-04-05T02:16:50.202Z,998.76
2018-04-05T02:17:50.142Z,998.74
2018-04-05T02:18:50.067Z,998.72
2018-04-05T02:19:49.972Z,998.82
2018-04-05T02:20:49.880Z,998.94
2018-04-05T02:21:49.812Z,998.78
2018-04-05T02:22:49.731Z,998.74
2018-04-05T02:23:49.664Z,998.80
2018-04-05T02:24:49.569Z,998.80
2018-04-05T02:25:49.512Z,998.81
2018-04-05T02:26:49.446Z,998.85
2018-04-05T02:27:49.334Z,998.81
2018-04-05T02:28:49.257Z,998.85
2018-04-05T02:29:49.195Z,998.88
2018-04-05T02:30:49.089Z,998.80
2018-04-05T02:31:49.032Z,998.74
2018-04-05T02:32:48.922Z,998.77
2018-04-05T02:33:48.887Z,998.79
2018-04-05T02:34:48.771Z,998.75
2018-04-05T02:35:48.716Z,998.82
2018-04-05T02:36:48.607Z,998.80
2018-04-05T02:37:48.561Z,998.85
2018-04-05T02:38:48.480Z,998.86
2018-04-05T02:39:48.401Z,998.88
2018-04-05T02:40:48.292Z,998.87
2018-04-05T02:41:48.230Z,998.96
2018-04-05T02:42:48.132Z,998.94
2018-04-05T02:43:48.065Z,998.91
2018-04-05T02:44:47.989Z,998.97
2018-04-05T02:45:47.898Z,999.02
2018-04-05T02:46:47.865Z,998.98
2018-04-05T02:47:47.738Z,999.01
2018-04-05T02:48:47.645Z,999.05
2018-04-05T02:49:47.723Z,999.03
2018-04-05T02:50:47.512Z,999.04
2018-04-05T02:51:47.420Z,999.05
2018-04-05T02:52:47.334Z,999.00
2018-04-05T02:53:47.265Z,999.10
2018-04-05T02:54:47.174Z,999.07
2018-04-05T02:55:47.131Z,999.13
2018-04-05T02:56:47.008Z,999.15
2018-04-05T02:57:46.952Z,999.18
2018-04-05T02:58:46.859Z,999.12
2018-04-05T02:59:46.783Z,999.11
2018-04-05T03:00:46.710Z,999.15
2018-04-05T03:01:46.625Z,999.10
2018-04-05T03:02:46.540Z,999.19
2018-04-05T03:03:46.461Z,999.20
2018-04-05T03:04:46.378Z,999.17
2018-04-05T03:05:46.324Z,999.20
2018-04-05T03:06:46.225Z,999.22
2018-04-05T03:07:46.161Z,999.23
2018-04-05T03:08:46.055Z,999.27
2018-04-05T03:09:45.993Z,999.19
2018-04-05T03:10:45.934Z,999.26
2018-04-05T03:11:45.829Z,999.24
2018-04-05T03:12:45.756Z,999.25
2018-04-05T03:13:45.669Z,999.19
2018-04-05T03:14:45.587Z,999.22
2018-04-05T03:15:45.509Z,999.27
2018-04-05T03:16:45.435Z,999.27
2018-04-05T03:17:45.352Z,999.24
2018-04-05T03:18:45.259Z,999.28
2018-04-05T03:19:45.188Z,999.28
2018-04-05T03:20:45.107Z,999.34
2018-04-05T03:21:45.052Z,999.25
2018-04-05T03:22:44.952Z,999.23
2018-04-05T03:23:44.877Z,999.31
2018-04-05T03:24:44.778Z,999.25
2018-04-05T03:25:44.734Z,999.24
2018-04-05T03:26:44.640Z,999.26
2018-04-05T03:27:44.561Z,999.25
2018-04-05T03:28:44.460Z,999.23
2018-04-05T03:29:44.411Z,999.29
2018-04-05T03:30:44.304Z,999.26
2018-04-05T03:31:44.256Z,999.32
2018-04-05T03:32:44.160Z,999.27
2018-04-05T03:33:44.069Z,999.27
2018-04-05T03:34:43.984Z,999.36
2018-04-05T03:35:43.915Z,999.33
2018-04-05T03:36:43.823Z,999.35
2018-04-05T03:37:43.781Z,999.39
2018-04-05T03:38:43.695Z,999.43
2018-04-05T03:39:43.631Z,999.47
2018-04-05T03:40:43.505Z,999.46
2018-04-05T03:41:43.439Z,999.50
2018-04-05T03:42:43.428Z,999.47
2018-04-05T03:43:43.285Z,999.44
2018-04-05T03:44:43.183Z,999.52
2018-04-05T03:45:43.256Z,999.54
2018-04-05T03:46:43.032Z,999.57
2018-04-05T03:47:42.968Z,999.56
2018-04-05T03:48:42.880Z,999.57
2018-04-05T03:49:42.812Z,999.59
2018-04-05T03:50:42.728Z,999.61
2018-04-05T03:51:42.641Z,999.60
2018-04-05T03:52:42.551Z,999.58
2018-04-05T03:53:42.478Z,999.53
2018-04-05T03:54:42.395Z,999.57
2018-04-05T03:55:42.412Z,999.58
2018-04-05T03:56:42.233Z,999.56
2018-04-05T03:57:42.176Z,999.56
2018-04-05T03:58:42.125Z,999.55
2018-04-05T03:59:42.011Z,999.60
2018-04-05T04:00:41.913Z,999.52
2018-04-05T04:01:41.844Z,999.60
2018-04-05T04:02:41.758Z,999.69
2018-04-05T04:03:41.716Z,999.66
2018-04-05T04:04:41.591Z,999.68
2018-04-05T04:05:41.532Z,999.69
2018-04-05T04:06:41.433Z,999.68
2018-04-05T04:07:41.382Z,999.72
2018-04-05T04:08:41.288Z,999.70
2018-04-05T04:09:41.219Z,999.68
2018-04-05T04:10:41.107Z,999.73
2018-04-05T04:11:41.051Z,999.70
2018-04-05T04:12:40.981Z,999.74
2018-04-05T04:13:40.888Z,999.74
2018-04-05T04:14:40.809Z,999.74
2018-04-05T04:15:40.731Z,999.73
2018-04-05T04:16:40.647Z,999.70
2018-04-05T04:17:40.566Z,999.76
2018-04-05T04:18:40.533Z,999.76
2018-04-05T04:19:40.426Z,999.77
2018-04-05T04:20:40.320Z,999.78
2018-04-05T04:21:40.295Z,999.80
2018-04-05T04:22:40.155Z,999.78
2018-04-05T04:23:40.102Z,999.85
2018-04-05T04:24:40.004Z,999.83
2018-04-05T04:25:39.951Z,999.82
2018-04-05T04:26:39.849Z,999.88
2018-04-05T04:27:39.769Z,999.92
2018-04-05T04:28:39.706Z,999.93
2018-04-05T04:29:39.667Z,999.92
2018-04-05T04:30:39.551Z,999.89
2018-04-05T04:31:39.475Z,999.98
2018-04-05T04:32:39.377Z,999.92
2018-04-05T04:33:39.380Z,999.93
2018-04-05T04:34:39.202Z,999.89
2018-04-05T04:35:39.222Z,999.94
2018-04-05T04:36:39.066Z,999.93
2018-04-05T04:37:38.998Z,999.91
2018-04-05T04:38:38.886Z,999.97
2018-04-05T04:39:38.912Z,999.92
2018-04-05T04:40:38.727Z,999.91
2018-04-05T04:41:38.758Z,1000.03
2018-04-05T04:42:38.582Z,999.98
2018-04-05T04:43:38.525Z,999.98
2018-04-05T04:44:38.403Z,1000.02
2018-04-05T04:45:38.453Z,1000.02
2018-04-05T04:46:38.268Z,1000.03
2018-04-05T04:47:38.275Z,1000.02
2018-04-05T04:48:38.126Z,999.97
2018-04-05T04:49:38.050Z,1000.05
2018-04-05T04:50:37.937Z,1000.09
2018-04-05T04:51:38.002Z,1000.03
2018-04-05T04:52:37.800Z,1000.08
2018-04-05T04:53:37.718Z,1000.11
2018-04-05T04:54:37.614Z,1000.09
2018-04-05T04:55:37.549Z,1000.15
2018-04-05T04:56:37.462Z,1000.09
2018-04-05T04:57:37.402Z,1000.17
2018-04-05T04:58:37.301Z,1000.14
2018-04-05T04:59:37.229Z,1000.26
2018-04-05T05:00:37.139Z,1000.23
2018-04-05T05:01:37.058Z,1000.25
2018-04-05T05:02:36.981Z,1000.31
2018-04-05T05:03:36.930Z,1000.28
2018-04-05T05:04:36.809Z,1000.37
2018-04-05T05:05:36.744Z,1000.36
2018-04-05T05:06:36.660Z,1000.35
2018-04-05T05:07:36.581Z,1000.38
2018-04-05T05:08:36.550Z,1000.36
2018-04-05T05:09:36.424Z,1000.42
2018-04-05T05:10:36.339Z,1000.39
2018-04-05T05:11:36.279Z,1000.40
2018-04-05T05:12:36.176Z,1000.47
2018-04-05T05:13:36.124Z,1000.57
2018-04-05T05:14:36.017Z,1000.49
2018-04-05T05:15:36.019Z,1000.49
2018-04-05T05:16:35.864Z,1000.56
2018-04-05T05:17:35.788Z,1000.54
2018-04-05T05:18:35.714Z,1000.54
2018-04-05T05:19:35.632Z,1000.70
2018-04-05T05:20:35.563Z,1000.58
2018-04-05T05:21:35.486Z,1000.58
2018-04-05T05:22:35.379Z,1000.59
2018-04-05T05:23:35.331Z,1000.59
2018-04-05T05:24:35.225Z,1000.66
2018-04-05T05:25:35.144Z,1000.64
2018-04-05T05:26:35.063Z,1000.64
2018-04-05T05:27:34.988Z,1000.56
2018-04-05T05:28:34.923Z,1000.65
2018-04-05T05:29:34.839Z,1000.76
2018-04-05T05:30:34.750Z,1000.74
2018-04-05T05:31:34.673Z,1000.74
2018-04-05T05:32:34.600Z,1000.72
2018-04-05T05:33:34.521Z,1000.82
2018-04-05T05:34:34.428Z,1000.82
2018-04-05T05:35:34.401Z,1000.80
2018-04-05T05:36:34.262Z,1000.83
2018-04-05T05:37:34.194Z,1000.89
2018-04-05T05:38:34.128Z,1000.79
2018-04-05T05:39:34.033Z,1000.85
2018-04-05T05:40:33.936Z,1000.90
2018-04-05T05:41:33.870Z,1000.92
2018-04-05T05:42:33.776Z,1000.95
2018-04-05T05:43:33.733Z,1000.92
2018-04-05T05:44:33.644Z,1000.93
2018-04-05T05:45:33.572Z,1000.92
2018-04-05T05:46:33.467Z,1000.92
2018-04-05T05:47:33.421Z,1000.90
2018-04-05T05:48:33.304Z,1001.00
2018-04-05T05:49:33.233Z,1000.96
2018-04-05T05:50:33.161Z,1000.98
2018-04-05T05:51:33.094Z,1000.94
2018-04-05T05:52:32.985Z,1001.05
2018-04-05T05:53:32.919Z,1001.01
2018-04-05T05:54:32.920Z,1001.12
2018-04-05T05:55:32.819Z,1001.18
2018-04-05T05:56:32.666Z,1001.17
2018-04-05T05:57:32.684Z,1001.12
2018-04-05T05:58:32.525Z,1001.11
2018-04-05T05:59:32.510Z,1001.22
2018-04-05T06:00:32.362Z,1001.13
2018-04-05T06:01:32.398Z,1001.23
2018-04-05T06:02:32.187Z,1001.23
2018-04-05T06:03:32.300Z,1001.26
2018-04-05T06:04:32.047Z,1001.14
2018-04-05T06:05:32.046Z,1001.09
2018-04-05T06:06:31.905Z,1001.21
2018-04-05T06:07:31.932Z,1001.18
2018-04-05T06:08:31.790Z,1001.20
2018-04-05T06:09:31.765Z,1001.30
2018-04-05T06:10:31.595Z,1001.32
2018-04-05T06:11:31.602Z,1001.26
2018-04-05T06:12:31.448Z,1001.53
2018-04-05T06:13:31.473Z,1001.66
2018-04-05T06:14:31.294Z,1001.48
2018-04-05T06:15:31.295Z,1001.56
2018-04-05T06:16:31.953Z,1001.56
2018-04-05T06:17:31.101Z,1001.60
2018-04-05T06:18:30.913Z,1001.58
2018-04-05T06:19:30.882Z,1001.60
2018-04-05T06:20:30.758Z,1001.66
2018-04-05T06:21:30.808Z,1001.63
2018-04-05T06:22:30.598Z,1001.69
2018-04-05T06:23:30.666Z,1001.63
2018-04-05T06:24:30.440Z,1001.68
2018-04-05T06:25:30.404Z,1001.69
2018-04-05T06:26:30.370Z,1001.72
2018-04-05T06:27:30.310Z,1001.63
2018-04-05T06:28:30.120Z,1001.74
2018-04-05T06:29:30.117Z,1001.80
2018-04-05T06:30:29.947Z,1001.83
2018-04-05T06:31:29.922Z,1001.78
2018-04-05T06:32:29.820Z,1001.91
2018-04-05T06:33:29.846Z,1001.93
2018-04-05T06:34:29.641Z,1001.93
2018-04-05T06:35:29.644Z,1001.89
2018-04-05T06:36:29.476Z,1001.94
2018-04-05T06:37:29.480Z,1002.01
2018-04-05T06:38:29.321Z,1002.15
2018-04-05T06:39:29.249Z,1001.96
2018-04-05T06:40:29.148Z,1002.06
2018-04-05T06:41:29.156Z,1002.12
2018-04-05T06:42:29.008Z,1002.07
2018-04-05T06:43:29.016Z,1002.10
2018-04-05T06:44:28.825Z,1002.09
2018-04-05T06:45:28.799Z,1002.16
2018-04-05T06:46:28.679Z,1002.14
2018-04-05T06:47:28.703Z,1002.22
2018-04-05T06:48:28.542Z,1002.18
2018-04-05T06:49:28.514Z,1002.23
2018-04-05T06:50:28.347Z,1002.24
2018-04-05T06:51:28.324Z,1002.19
2018-04-05T06:52:28.187Z,1002.42
2018-04-05T06:53:28.373Z,1002.30
2018-04-05T06:54:28.040Z,1002.25
2018-04-05T06:55:28.037Z,1002.25
2018-04-05T06:56:27.881Z,1002.40
2018-04-05T06:57:27.852Z,1002.37
2018-04-05T06:58:27.833Z,1002.37
2018-04-05T06:59:27.760Z,1002.30
2018-04-05T07:00:27.560Z,1002.42
2018-04-05T07:01:27.562Z,1002.35
2018-04-05T07:02:27.400Z,1002.26
2018-04-05T07:03:27.418Z,1002.52
2018-04-05T07:04:27.238Z,1002.47
2018-04-05T07:05:27.357Z,1002.58
2018-04-05T07:06:27.066Z,1002.61
2018-04-05T07:07:27.095Z,1002.55
2018-04-05T07:08:26.924Z,1002.57
2018-04-05T07:09:26.936Z,1002.63
2018-04-05T07:10:26.753Z,1002.79
2018-04-05T07:11:27.019Z,1002.76
2018-04-05T07:12:26.596Z,1002.77
2018-04-05T07:15:08.471Z,1002.74
2018-04-05T07:16:08.413Z,1002.79
2018-04-05T07:17:08.295Z,1002.74
2018-04-05T07:18:08.345Z,1002.85
2018-04-05T07:19:08.119Z,1002.91
2018-04-05T07:20:08.067Z,1002.83
2018-04-05T07:21:07.973Z,1002.84
2018-04-05T07:22:07.953Z,1002.84
2018-04-05T07:23:07.853Z,1002.95
2018-04-05T07:24:07.789Z,1002.94
2018-04-05T07:25:07.666Z,1002.91
2018-04-05T07:26:07.659Z,1002.85
2018-04-05T07:27:07.482Z,1002.91
2018-04-05T07:28:07.463Z,1002.99
2018-04-05T07:29:07.340Z,1003.01
2018-04-05T07:30:07.312Z,1003.04
2018-04-05T07:31:07.160Z,1003.05
2018-04-05T07:32:07.182Z,1003.20
2018-04-05T07:33:07.008Z,1003.27
2018-04-05T07:34:06.941Z,1003.16
2018-04-05T07:35:06.897Z,1003.20
2018-04-05T07:36:06.784Z,1003.28
2018-04-05T07:39:14.963Z,1003.30
2018-04-05T07:40:35.961Z,1003.32
2018-04-05T07:41:14.789Z,1003.29
2018-04-05T07:42:14.828Z,1003.33
2018-04-05T07:43:14.631Z,1003.42
2018-04-05T07:44:14.636Z,1003.41
2018-04-05T07:45:14.500Z,1003.45
2018-04-05T07:46:14.453Z,1003.41
2018-04-05T07:47:14.310Z,1003.49
2018-04-05T07:48:14.358Z,1003.54
2018-04-05T07:49:14.164Z,1003.55
2018-04-05T07:50:14.213Z,1003.64
2018-04-05T07:51:13.998Z,1003.59
2018-04-05T07:52:13.980Z,1003.67
2018-04-05T07:53:13.837Z,1003.65
2018-04-05T07:54:13.789Z,1003.72
2018-04-05T07:55:13.721Z,1003.74
2018-04-05T07:56:13.706Z,1003.84
2018-04-05T07:57:13.513Z,1003.82
2018-04-05T07:58:13.512Z,1003.77
2018-04-05T07:59:13.402Z,1003.85
2018-04-05T08:00:13.345Z,1003.91
2018-04-05T08:01:13.216Z,1003.80
2018-04-05T08:02:13.119Z,1003.91
2018-04-05T08:03:13.028Z,1003.88
2018-04-05T08:04:13.031Z,1003.88
2018-04-05T08:05:12.895Z,1003.89
2018-04-05T08:06:12.865Z,1004.01
2018-04-05T08:07:12.728Z,1004.05
2018-04-05T08:08:12.775Z,1004.02
2018-04-05T08:09:12.551Z,1003.99
2018-04-05T08:10:12.555Z,1004.03
2018-04-05T08:11:12.411Z,1004.01
2018-04-05T08:12:12.320Z,1004.06
2018-04-05T08:13:12.240Z,1004.11
2018-04-05T08:14:12.154Z,1004.05
2018-04-05T08:15:12.066Z,1004.10
2018-04-05T08:16:12.027Z,1004.06
2018-04-05T08:17:11.904Z,1004.13
2018-04-05T08:18:11.902Z,1004.06
2018-04-05T08:19:11.739Z,1004.16
2018-04-05T08:20:11.696Z,1004.19
2018-04-05T08:21:11.590Z,1004.29
2018-04-05T08:22:11.642Z,1004.23
2018-04-05T08:23:11.529Z,1004.29
2018-04-05T08:24:11.416Z,1004.37
2018-04-05T08:25:11.268Z,1004.35
2018-04-05T08:26:11.280Z,1004.37
2018-04-05T08:27:11.124Z,1004.39
2018-04-05T08:28:11.134Z,1004.34
2018-04-05T08:29:10.958Z,1004.42
2018-04-05T08:30:10.884Z,1004.48
2018-04-05T08:31:10.819Z,1004.42
2018-04-05T08:32:10.789Z,1004.55
2018-04-05T08:33:10.622Z,1004.62
2018-04-05T08:34:10.558Z,1004.53
2018-04-05T08:35:10.514Z,1004.67
2018-04-05T08:36:10.484Z,1004.67
2018-04-05T08:37:10.347Z,1004.69
2018-04-05T08:38:10.289Z,1004.71
2018-04-05T08:39:10.144Z,1004.67
2018-04-05T08:40:10.207Z,1004.75
2018-04-05T08:41:09.983Z,1004.68
2018-04-05T08:42:10.029Z,1004.83
2018-04-05T08:43:09.823Z,1004.78
2018-04-05T08:44:09.811Z,1004.81
2018-04-05T08:45:09.674Z,1004.89
2018-04-05T08:46:09.724Z,1004.84
2018-04-05T08:47:09.544Z,1004.85
2018-04-05T08:48:09.527Z,1004.90
2018-04-05T08:49:09.385Z,1004.91
2018-04-05T08:50:09.301Z,1004.89
2018-04-05T08:51:09.243Z,1004.96
2018-04-05T08:52:09.180Z,1004.98
2018-04-05T08:53:09.060Z,1005.01
2018-04-05T08:54:09.066Z,1005.03
2018-04-05T08:55:08.904Z,1005.10
2018-04-05T08:56:08.870Z,1005.07
2018-04-05T08:57:08.712Z,1005.28
2018-04-05T08:58:08.731Z,1005.22
2018-04-05T08:59:08.544Z,1005.27
2018-04-05T09:00:08.585Z,1005.29
2018-04-05T09:01:08.383Z,1005.29
2018-04-05T09:02:08.389Z,1005.35
2018-04-05T09:03:08.249Z,1005.38
2018-04-05T09:04:08.200Z,1005.43
2018-04-05T09:05:08.065Z,1005.47
2018-04-05T09:06:08.119Z,1005.51
2018-04-05T09:07:08.028Z,1005.51
2018-04-05T09:08:07.931Z,1005.51
2018-04-05T09:09:08.154Z,1005.57
2018-04-05T09:10:07.756Z,1005.63
2018-04-05T09:11:07.574Z,1005.62
2018-04-05T09:12:07.528Z,1005.70
2018-04-05T09:13:07.489Z,1005.76
2018-04-05T09:14:07.597Z,1005.76
2018-04-05T09:15:07.277Z,1005.81
2018-04-05T09:16:07.259Z,1005.83
2018-04-05T09:17:07.103Z,1005.96
2018-04-05T09:18:07.076Z,1005.88
2018-04-05T09:19:06.971Z,1005.86
2018-04-05T09:20:06.975Z,1005.95
2018-04-05T09:21:06.779Z,1005.95
2018-04-05T09:22:06.808Z,1005.96
2018-04-05T09:23:06.637Z,1005.93
2018-04-05T09:24:06.632Z,1006.02
2018-04-05T09:25:06.469Z,1006.02
2018-04-05T09:26:06.481Z,1006.07
2018-04-05T09:27:06.308Z,1006.10
2018-04-05T09:28:06.311Z,1006.13
2018-04-05T09:29:06.136Z,1006.20
2018-04-05T09:30:06.162Z,1006.13
2018-04-05T09:31:06.004Z,1006.15
2018-04-05T09:32:05.948Z,1006.30
2018-04-05T09:33:05.821Z,1006.29
2018-04-05T09:34:05.851Z,1006.32
2018-04-05T09:35:05.657Z,1006.29
2018-04-05T09:36:05.694Z,1006.30
2018-04-05T09:37:05.490Z,1006.36
2018-04-05T09:38:05.458Z,1006.42
2018-04-05T09:39:05.326Z,1006.39
2018-04-05T09:40:05.409Z,1006.41
2018-04-05T09:41:05.169Z,1006.47
2018-04-05T09:43:47.472Z,1006.56
2018-04-05T09:44:47.512Z,1006.55
2018-04-05T09:45:47.343Z,1006.59
2018-04-05T09:46:47.356Z,1006.60
2018-04-05T09:47:47.150Z,1006.61
2018-04-05T09:48:47.254Z,1006.58
2018-04-05T09:49:47.000Z,1006.70
2018-04-05T09:50:47.036Z,1006.60
2018-04-05T09:51:46.864Z,1006.69
2018-04-05T09:52:46.838Z,1006.67
2018-04-05T09:53:46.689Z,1006.72
2018-04-05T09:54:46.632Z,1006.74
2018-04-05T09:55:46.536Z,1006.77
2018-04-05T09:56:46.537Z,1006.75
2018-04-05T09:57:46.359Z,1006.74
2018-04-05T09:58:46.344Z,1006.82
2018-04-05T09:59:46.218Z,1006.84
2018-04-05T10:00:46.781Z,1006.87
2018-04-05T10:01:46.025Z,1007.02
2018-04-05T10:02:46.059Z,1007.04
2018-04-05T10:03:45.869Z,1007.16
2018-04-05T10:04:45.793Z,1007.08
2018-04-05T10:05:45.741Z,1007.14
2018-04-05T10:06:45.682Z,1007.03
2018-04-05T10:07:45.670Z,1007.09
2018-04-05T10:08:45.899Z,1007.10
2018-04-05T10:09:45.413Z,1007.15
2018-04-05T10:10:46.056Z,1007.23
2018-04-05T10:11:45.246Z,1007.26
2018-04-05T10:12:45.202Z,1007.20
2018-04-05T10:13:45.081Z,1007.17
2018-04-05T10:14:44.994Z,1007.34
2018-04-05T10:15:44.909Z,1007.22
2018-04-05T10:16:44.967Z,1007.33
2018-04-05T10:17:44.758Z,1007.28
2018-04-05T10:18:44.680Z,1007.36
2018-04-05T10:19:44.606Z,1007.36
2018-04-05T10:20:44.547Z,1007.34
2018-04-05T10:21:44.459Z,1007.28
2018-04-05T10:22:44.452Z,1007.44
2018-04-05T10:23:44.283Z,1007.43
2018-04-05T10:24:45.060Z,1007.38
2018-04-05T10:25:44.733Z,1007.50
2018-04-05T10:26:44.082Z,1007.53
2018-04-05T10:27:43.964Z,1007.49
2018-04-05T10:28:44.119Z,1007.53
2018-04-05T10:29:43.784Z,1007.50
2018-04-05T10:30:43.786Z,1007.57
2018-04-05T10:31:43.661Z,1008.02
2018-04-05T10:32:43.600Z,1007.63
2018-04-05T10:33:43.464Z,1007.59
2018-04-05T10:34:43.508Z,1007.61
2018-04-05T10:35:43.318Z,1007.68
2018-04-05T10:36:43.275Z,1007.71
2018-04-05T10:37:43.178Z,1007.71
2018-04-05T10:38:43.133Z,1007.72
2018-04-05T10:39:43.017Z,1007.70
2018-04-05T10:40:43.046Z,1007.77
2018-04-05T10:41:42.848Z,1007.77
2018-04-05T10:42:42.872Z,1007.81
2018-04-05T10:43:42.707Z,1007.76
2018-04-05T10:44:42.655Z,1007.78
2018-04-05T10:45:42.525Z,1007.79
2018-04-05T10:46:42.577Z,1007.71
2018-04-05T10:47:42.390Z,1007.83
2018-04-05T10:48:42.368Z,1007.86
2018-04-05T10:49:42.206Z,1007.95
2018-04-05T10:50:42.187Z,1008.87
2018-04-05T10:51:42.126Z,1009.10
2018-04-05T10:52:41.997Z,1008.19
2018-04-05T10:53:41.890Z,1008.29
2018-04-05T10:54:41.816Z,1008.19
2018-04-05T10:55:41.711Z,1008.26
2018-04-05T10:56:41.647Z,1008.13
2018-04-05T10:57:41.564Z,1008.59
2018-04-05T10:58:41.553Z,1008.39
2018-04-05T10:59:41.398Z,1009.05
2018-04-05T11:00:41.436Z,1008.29
2018-04-05T11:01:41.254Z,1008.42
2018-04-05T11:02:41.232Z,1008.52
2018-04-05T11:03:41.109Z,1008.53
2018-04-05T11:04:41.080Z,1009.26
2018-04-05T11:05:40.937Z,1008.84
2018-04-05T11:06:40.958Z,1008.69
2018-04-05T11:07:40.770Z,1008.94
2018-04-05T11:08:40.765Z,1008.41
2018-04-05T11:09:40.645Z,1008.38
2018-04-05T11:10:40.589Z,1008.38
2018-04-05T11:11:40.457Z,1008.41
2018-04-05T11:12:40.487Z,1008.29
2018-04-05T11:13:40.325Z,1008.43
2018-04-05T11:14:40.332Z,1008.49
2018-04-05T11:15:40.149Z,1008.60
2018-04-05T11:16:40.205Z,1008.53
2018-04-05T11:17:39.994Z,1008.64
2018-04-05T11:18:40.008Z,1008.79
2018-04-05T11:19:39.949Z,1008.68
2018-04-05T11:20:39.852Z,1008.79
2018-04-05T11:21:39.921Z,1008.83
2018-04-05T11:22:39.725Z,1008.91
2018-04-05T11:23:39.522Z,1008.94
2018-04-05T11:24:39.536Z,1008.92
2018-04-05T11:25:39.383Z,1009.04
2018-04-05T11:26:39.340Z,1009.01
2018-04-05T11:27:39.223Z,1009.03
2018-04-05T11:28:39.255Z,1009.06
2018-04-05T11:29:39.071Z,1009.13
2018-04-05T11:30:39.118Z,1009.15
2018-04-05T11:31:38.892Z,1009.14
2018-04-05T11:32:38.867Z,1009.19
2018-04-05T11:33:38.732Z,1009.15
2018-04-05T11:34:38.805Z,1009.18
2018-04-05T11:35:38.595Z,1009.30
2018-04-05T11:36:38.503Z,1009.32
2018-04-05T11:37:38.421Z,1009.24
2018-04-05T11:38:38.412Z,1009.33
2018-04-05T11:39:38.250Z,1009.39
2018-04-05T11:40:38.244Z,1009.35
2018-04-05T11:41:38.107Z,1009.33
2018-04-05T11:42:38.137Z,1009.28
2018-04-05T11:43:37.944Z,1009.36
2018-04-05T11:44:37.866Z,1009.37
2018-04-05T11:45:37.778Z,1009.45
2018-04-05T11:46:37.743Z,1009.48
2018-04-05T11:47:37.638Z,1009.44
2018-04-05T11:48:37.543Z,1009.49
2018-04-05T11:49:37.455Z,1009.60
2018-04-05T11:50:37.450Z,1009.66
2018-04-05T11:51:37.316Z,1009.66
2018-04-05T11:52:37.255Z,1009.63
2018-04-05T11:53:37.143Z,1009.74
2018-04-05T11:54:37.105Z,1009.75
2018-04-05T11:55:36.977Z,1009.70
2018-04-05T11:56:37.014Z,1009.81
2018-04-05T11:57:36.828Z,1009.96
2018-04-05T11:58:36.805Z,1009.82
2018-04-05T11:59:36.652Z,1009.87
2018-04-05T12:00:36.716Z,1010.03
2018-04-05T12:01:36.524Z,1010.06
2018-04-05T12:02:36.476Z,1010.07
2018-04-05T12:03:36.341Z,1010.06
2018-04-05T12:04:36.314Z,1010.11
2018-04-05T12:05:36.186Z,1010.07
2018-04-05T12:06:36.159Z,1010.14
2018-04-05T12:07:36.074Z,1010.14
2018-04-05T12:08:36.044Z,1010.19
2018-04-05T12:09:35.854Z,1010.19
2018-04-05T12:10:35.848Z,1010.13
2018-04-05T12:11:35.719Z,1010.20
2018-04-05T12:12:35.642Z,1010.24
2018-04-05T12:13:35.560Z,1010.23
2018-04-05T12:14:35.666Z,1010.29
2018-04-05T12:15:35.384Z,1010.31
2018-04-05T12:16:35.310Z,1010.32
2018-04-05T12:17:35.263Z,1010.39
2018-04-05T12:18:35.177Z,1010.50
2018-04-05T12:19:35.066Z,1010.41
2018-04-05T12:20:34.993Z,1010.42